sensor_id;sensor_type;location;lat;lon;timestamp;P1;durP1;ratioP1;P2;durP2;ratioP2
66802;SDS011;53705;49.860;8.744;2023-04-15T00:01:37;5.75;;;1.88;;
66802;SDS011;53705;49.860;8.744;2023-04-15T00:04:05;3.70;;;1.35;;
66802;SDS011;53705;49.860;8.744;2023-04-15T00:06:33;4.53;;;1.48;;
66802;SDS011;53705;49.860;8.744;2023-04-15T00:09:01;3.38;;;1.52;;
66802;SDS011;53705;49.860;8.744;2023-04-15T00:11:30;3.25;;;2.33;;
66802;SDS011;53705;49.860;8.744;2023-04-15T00:13:58;2.63;;;0.98;;
66802;SDS011;53705;49.860;8.744;2023-04-15T00:16:26;4.03;;;1.00;;
66802;SDS011;53705;49.860;8.744;2023-04-15T00:18:53;4.88;;;1.10;;
66802;SDS011;53705;49.860;8.744;2023-04-15T00:21:22;3.47;;;0.88;;
66802;SDS011;53705;49.860;8.744;2023-04-15T00:23:49;2.67;;;0.90;;
66802;SDS011;53705;49.860;8.744;2023-04-15T00:26:19;3.40;;;1.60;;
66802;SDS011;53705;49.860;8.744;2023-04-15T00:28:49;3.85;;;1.20;;
66802;SDS011;53705;49.860;8.744;2023-04-15T00:31:17;6.00;;;0.80;;
66802;SDS011;53705;49.860;8.744;2023-04-15T00:33:46;5.32;;;0.90;;
66802;SDS011;53705;49.860;8.744;2023-04-15T00:36:14;3.25;;;0.77;;
66802;SDS011;53705;49.860;8.744;2023-04-15T00:38:41;2.80;;;1.25;;
66802;SDS011;53705;49.860;8.744;2023-04-15T00:41:09;3.20;;;1.23;;
66802;SDS011;53705;49.860;8.744;2023-04-15T00:43:38;2.53;;;0.90;;
66802;SDS011;53705;49.860;8.744;2023-04-15T00:46:07;3.35;;;0.73;;
66802;SDS011;53705;49.860;8.744;2023-04-15T00:48:36;4.28;;;1.00;;
66802;SDS011;53705;49.860;8.744;2023-04-15T00:51:04;2.60;;;1.10;;
66802;SDS011;53705;49.860;8.744;2023-04-15T00:53:32;3.78;;;1.83;;
66802;SDS011;53705;49.860;8.744;2023-04-15T00:56:00;4.78;;;1.15;;
66802;SDS011;53705;49.860;8.744;2023-04-15T00:58:27;4.13;;;1.25;;
66802;SDS011;53705;49.860;8.744;2023-04-15T01:00:56;3.20;;;1.15;;
66802;SDS011;53705;49.860;8.744;2023-04-15T01:03:25;5.55;;;1.73;;
66802;SDS011;53705;49.860;8.744;2023-04-15T01:05:53;4.55;;;2.72;;
66802;SDS011;53705;49.860;8.744;2023-04-15T01:08:25;4.30;;;1.58;;
66802;SDS011;53705;49.860;8.744;2023-04-15T01:10:53;5.97;;;1.42;;
66802;SDS011;53705;49.860;8.744;2023-04-15T01:13:21;3.70;;;1.30;;
66802;SDS011;53705;49.860;8.744;2023-04-15T01:15:49;7.80;;;2.75;;
66802;SDS011;53705;49.860;8.744;2023-04-15T01:20:47;11.15;;;4.63;;
66802;SDS011;53705;49.860;8.744;2023-04-15T01:23:14;11.60;;;6.07;;
66802;SDS011;53705;49.860;8.744;2023-04-15T01:25:44;8.45;;;2.42;;
66802;SDS011;53705;49.860;8.744;2023-04-15T01:28:12;5.32;;;2.38;;
66802;SDS011;53705;49.860;8.744;2023-04-15T01:30:39;6.55;;;2.40;;
66802;SDS011;53705;49.860;8.744;2023-04-15T01:33:07;7.03;;;2.38;;
66802;SDS011;53705;49.860;8.744;2023-04-15T01:35:55;6.00;;;1.45;;
66802;SDS011;53705;49.860;8.744;2023-04-15T01:38:25;4.57;;;1.10;;
66802;SDS011;53705;49.860;8.744;2023-04-15T01:40:54;6.90;;;3.50;;
66802;SDS011;53705;49.860;8.744;2023-04-15T01:43:24;4.82;;;2.08;;
66802;SDS011;53705;49.860;8.744;2023-04-15T01:45:53;5.57;;;0.98;;
66802;SDS011;53705;49.860;8.744;2023-04-15T01:48:23;3.90;;;1.33;;
66802;SDS011;53705;49.860;8.744;2023-04-15T01:50:53;6.63;;;1.77;;
66802;SDS011;53705;49.860;8.744;2023-04-15T01:53:23;3.88;;;1.30;;
66802;SDS011;53705;49.860;8.744;2023-04-15T01:55:53;5.43;;;1.20;;
66802;SDS011;53705;49.860;8.744;2023-04-15T01:58:23;3.78;;;1.05;;
66802;SDS011;53705;49.860;8.744;2023-04-15T02:00:52;3.58;;;1.23;;
66802;SDS011;53705;49.860;8.744;2023-04-15T02:03:21;2.97;;;0.93;;
66802;SDS011;53705;49.860;8.744;2023-04-15T02:05:52;3.75;;;1.13;;
66802;SDS011;53705;49.860;8.744;2023-04-15T02:08:21;3.72;;;0.95;;
66802;SDS011;53705;49.860;8.744;2023-04-15T02:10:50;3.13;;;1.23;;
66802;SDS011;53705;49.860;8.744;2023-04-15T02:13:19;2.97;;;1.45;;
66802;SDS011;53705;49.860;8.744;2023-04-15T02:15:50;2.80;;;1.27;;
66802;SDS011;53705;49.860;8.744;2023-04-15T02:18:20;5.30;;;2.15;;
66802;SDS011;53705;49.860;8.744;2023-04-15T02:20:50;3.65;;;1.33;;
66802;SDS011;53705;49.860;8.744;2023-04-15T02:23:19;6.13;;;1.77;;
66802;SDS011;53705;49.860;8.744;2023-04-15T02:25:48;10.95;;;4.13;;
66802;SDS011;53705;49.860;8.744;2023-04-15T02:28:20;14.15;;;4.60;;
66802;SDS011;53705;49.860;8.744;2023-04-15T02:30:51;12.32;;;3.65;;
66802;SDS011;53705;49.860;8.744;2023-04-15T02:33:21;7.63;;;2.78;;
66802;SDS011;53705;49.860;8.744;2023-04-15T02:35:50;7.10;;;2.90;;
66802;SDS011;53705;49.860;8.744;2023-04-15T02:38:20;4.95;;;2.25;;
66802;SDS011;53705;49.860;8.744;2023-04-15T02:40:49;7.97;;;6.13;;
66802;SDS011;53705;49.860;8.744;2023-04-15T02:43:18;6.88;;;2.40;;
66802;SDS011;53705;49.860;8.744;2023-04-15T02:45:47;6.03;;;2.40;;
66802;SDS011;53705;49.860;8.744;2023-04-15T02:48:17;7.03;;;2.33;;
66802;SDS011;53705;49.860;8.744;2023-04-15T02:50:47;5.93;;;2.15;;
66802;SDS011;53705;49.860;8.744;2023-04-15T02:53:17;9.00;;;4.35;;
66802;SDS011;53705;49.860;8.744;2023-04-15T02:55:46;3.78;;;1.30;;
66802;SDS011;53705;49.860;8.744;2023-04-15T02:58:16;7.30;;;1.95;;
66802;SDS011;53705;49.860;8.744;2023-04-15T03:00:44;6.63;;;4.57;;
66802;SDS011;53705;49.860;8.744;2023-04-15T03:03:14;7.32;;;2.30;;
66802;SDS011;53705;49.860;8.744;2023-04-15T03:05:44;7.03;;;2.97;;
66802;SDS011;53705;49.860;8.744;2023-04-15T03:08:13;7.57;;;3.13;;
66802;SDS011;53705;49.860;8.744;2023-04-15T03:10:43;11.20;;;6.85;;
66802;SDS011;53705;49.860;8.744;2023-04-15T03:13:12;6.35;;;3.22;;
66802;SDS011;53705;49.860;8.744;2023-04-15T03:15:41;8.88;;;3.35;;
66802;SDS011;53705;49.860;8.744;2023-04-15T03:18:10;7.55;;;3.67;;
66802;SDS011;53705;49.860;8.744;2023-04-15T03:20:40;6.50;;;3.20;;
66802;SDS011;53705;49.860;8.744;2023-04-15T03:23:11;8.98;;;3.88;;
66802;SDS011;53705;49.860;8.744;2023-04-15T03:25:40;8.60;;;3.72;;
66802;SDS011;53705;49.860;8.744;2023-04-15T03:28:09;9.50;;;3.00;;
66802;SDS011;53705;49.860;8.744;2023-04-15T03:30:38;9.52;;;3.88;;
66802;SDS011;53705;49.860;8.744;2023-04-15T03:33:07;7.70;;;3.75;;
66802;SDS011;53705;49.860;8.744;2023-04-15T03:35:37;10.20;;;3.97;;
66802;SDS011;53705;49.860;8.744;2023-04-15T03:38:06;9.77;;;4.07;;
66802;SDS011;53705;49.860;8.744;2023-04-15T03:40:37;6.85;;;3.30;;
66802;SDS011;53705;49.860;8.744;2023-04-15T03:43:06;7.68;;;3.78;;
66802;SDS011;53705;49.860;8.744;2023-04-15T03:45:35;7.57;;;3.85;;
66802;SDS011;53705;49.860;8.744;2023-04-15T03:48:04;8.20;;;3.50;;
66802;SDS011;53705;49.860;8.744;2023-04-15T03:50:44;9.80;;;3.60;;
66802;SDS011;53705;49.860;8.744;2023-04-15T03:53:14;8.80;;;3.50;;
66802;SDS011;53705;49.860;8.744;2023-04-15T03:55:44;5.85;;;2.90;;
66802;SDS011;53705;49.860;8.744;2023-04-15T03:58:13;7.90;;;3.08;;
66802;SDS011;53705;49.860;8.744;2023-04-15T04:00:43;7.05;;;3.42;;
66802;SDS011;53705;49.860;8.744;2023-04-15T04:03:11;7.28;;;2.22;;
66802;SDS011;53705;49.860;8.744;2023-04-15T04:05:41;9.00;;;2.55;;
66802;SDS011;53705;49.860;8.744;2023-04-15T04:08:11;6.30;;;1.80;;
66802;SDS011;53705;49.860;8.744;2023-04-15T04:10:40;5.40;;;2.10;;
66802;SDS011;53705;49.860;8.744;2023-04-15T04:13:11;4.95;;;2.10;;
66802;SDS011;53705;49.860;8.744;2023-04-15T04:15:40;5.35;;;1.50;;
66802;SDS011;53705;49.860;8.744;2023-04-15T04:18:09;4.40;;;1.73;;
66802;SDS011;53705;49.860;8.744;2023-04-15T04:20:38;4.45;;;1.95;;
66802;SDS011;53705;49.860;8.744;2023-04-15T04:23:08;6.53;;;1.70;;
66802;SDS011;53705;49.860;8.744;2023-04-15T04:25:37;4.53;;;2.30;;
66802;SDS011;53705;49.860;8.744;2023-04-15T04:28:06;5.15;;;1.55;;
66802;SDS011;53705;49.860;8.744;2023-04-15T04:30:36;5.25;;;2.05;;
66802;SDS011;53705;49.860;8.744;2023-04-15T04:33:05;5.30;;;2.60;;
66802;SDS011;53705;49.860;8.744;2023-04-15T04:35:34;6.30;;;3.20;;
66802;SDS011;53705;49.860;8.744;2023-04-15T04:38:04;10.40;;;5.68;;
66802;SDS011;53705;49.860;8.744;2023-04-15T04:40:33;7.68;;;5.22;;
66802;SDS011;53705;49.860;8.744;2023-04-15T04:43:02;5.57;;;2.67;;
66802;SDS011;53705;49.860;8.744;2023-04-15T04:45:31;5.22;;;2.22;;
66802;SDS011;53705;49.860;8.744;2023-04-15T04:48:01;6.45;;;1.77;;
66802;SDS011;53705;49.860;8.744;2023-04-15T04:50:33;4.90;;;1.95;;
66802;SDS011;53705;49.860;8.744;2023-04-15T04:53:03;4.90;;;3.20;;
66802;SDS011;53705;49.860;8.744;2023-04-15T04:55:32;4.70;;;3.55;;
66802;SDS011;53705;49.860;8.744;2023-04-15T04:58:03;5.18;;;1.92;;
66802;SDS011;53705;49.860;8.744;2023-04-15T05:00:32;5.03;;;3.58;;
66802;SDS011;53705;49.860;8.744;2023-04-15T05:03:03;7.22;;;2.35;;
66802;SDS011;53705;49.860;8.744;2023-04-15T05:05:32;7.30;;;2.67;;
66802;SDS011;53705;49.860;8.744;2023-04-15T05:08:02;20.58;;;8.35;;
66802;SDS011;53705;49.860;8.744;2023-04-15T05:10:31;9.45;;;3.25;;
66802;SDS011;53705;49.860;8.744;2023-04-15T05:13:00;5.93;;;3.05;;
66802;SDS011;53705;49.860;8.744;2023-04-15T05:15:29;7.15;;;2.45;;
66802;SDS011;53705;49.860;8.744;2023-04-15T05:17:59;4.80;;;1.92;;
66802;SDS011;53705;49.860;8.744;2023-04-15T05:20:29;5.00;;;2.00;;
66802;SDS011;53705;49.860;8.744;2023-04-15T05:22:58;3.85;;;2.00;;
66802;SDS011;53705;49.860;8.744;2023-04-15T05:25:27;6.93;;;3.38;;
66802;SDS011;53705;49.860;8.744;2023-04-15T05:27:56;5.57;;;2.50;;
66802;SDS011;53705;49.860;8.744;2023-04-15T05:30:27;5.13;;;1.92;;
66802;SDS011;53705;49.860;8.744;2023-04-15T05:32:55;4.47;;;2.70;;
66802;SDS011;53705;49.860;8.744;2023-04-15T05:35:25;5.13;;;1.85;;
66802;SDS011;53705;49.860;8.744;2023-04-15T05:37:55;5.50;;;1.63;;
66802;SDS011;53705;49.860;8.744;2023-04-15T05:40:24;3.90;;;1.83;;
66802;SDS011;53705;49.860;8.744;2023-04-15T05:42:53;5.28;;;2.53;;
66802;SDS011;53705;49.860;8.744;2023-04-15T05:45:22;4.53;;;2.88;;
66802;SDS011;53705;49.860;8.744;2023-04-15T05:47:51;3.72;;;1.55;;
66802;SDS011;53705;49.860;8.744;2023-04-15T05:50:21;4.75;;;1.98;;
66802;SDS011;53705;49.860;8.744;2023-04-15T05:52:50;4.78;;;1.63;;
66802;SDS011;53705;49.860;8.744;2023-04-15T05:55:20;5.57;;;1.58;;
66802;SDS011;53705;49.860;8.744;2023-04-15T05:57:50;5.88;;;1.88;;
66802;SDS011;53705;49.860;8.744;2023-04-15T06:00:18;7.82;;;3.63;;
66802;SDS011;53705;49.860;8.744;2023-04-15T06:02:48;6.40;;;3.28;;
66802;SDS011;53705;49.860;8.744;2023-04-15T06:05:17;5.45;;;2.47;;
66802;SDS011;53705;49.860;8.744;2023-04-15T06:07:46;9.25;;;5.10;;
66802;SDS011;53705;49.860;8.744;2023-04-15T06:10:16;5.78;;;2.17;;
66802;SDS011;53705;49.860;8.744;2023-04-15T06:12:46;6.85;;;3.97;;
66802;SDS011;53705;49.860;8.744;2023-04-15T06:15:15;6.43;;;1.88;;
66802;SDS011;53705;49.860;8.744;2023-04-15T06:17:44;10.10;;;2.67;;
66802;SDS011;53705;49.860;8.744;2023-04-15T06:20:13;5.22;;;3.03;;
66802;SDS011;53705;49.860;8.744;2023-04-15T06:22:42;9.20;;;4.53;;
66802;SDS011;53705;49.860;8.744;2023-04-15T06:25:11;6.65;;;3.03;;
66802;SDS011;53705;49.860;8.744;2023-04-15T06:27:40;6.78;;;2.80;;
66802;SDS011;53705;49.860;8.744;2023-04-15T06:30:11;8.38;;;3.08;;
66802;SDS011;53705;49.860;8.744;2023-04-15T06:32:40;7.88;;;3.42;;
66802;SDS011;53705;49.860;8.744;2023-04-15T06:35:09;9.05;;;4.05;;
66802;SDS011;53705;49.860;8.744;2023-04-15T06:37:38;6.25;;;2.90;;
66802;SDS011;53705;49.860;8.744;2023-04-15T06:40:08;8.27;;;3.50;;
66802;SDS011;53705;49.860;8.744;2023-04-15T06:42:37;9.30;;;3.30;;
66802;SDS011;53705;49.860;8.744;2023-04-15T06:45:07;7.70;;;4.20;;
66802;SDS011;53705;49.860;8.744;2023-04-15T06:47:37;8.32;;;3.85;;
66802;SDS011;53705;49.860;8.744;2023-04-15T06:50:07;6.20;;;3.15;;
66802;SDS011;53705;49.860;8.744;2023-04-15T06:52:37;7.63;;;4.00;;
66802;SDS011;53705;49.860;8.744;2023-04-15T06:55:06;8.05;;;3.88;;
66802;SDS011;53705;49.860;8.744;2023-04-15T06:57:35;8.60;;;4.38;;
66802;SDS011;53705;49.860;8.744;2023-04-15T07:00:05;8.82;;;6.35;;
66802;SDS011;53705;49.860;8.744;2023-04-15T07:02:34;7.20;;;3.75;;
66802;SDS011;53705;49.860;8.744;2023-04-15T07:05:05;8.95;;;4.90;;
66802;SDS011;53705;49.860;8.744;2023-04-15T07:07:35;10.90;;;4.97;;
66802;SDS011;53705;49.860;8.744;2023-04-15T07:10:04;11.38;;;4.90;;
66802;SDS011;53705;49.860;8.744;2023-04-15T07:12:33;10.32;;;6.03;;
66802;SDS011;53705;49.860;8.744;2023-04-15T07:15:03;8.68;;;5.00;;
66802;SDS011;53705;49.860;8.744;2023-04-15T07:17:33;8.82;;;4.32;;
66802;SDS011;53705;49.860;8.744;2023-04-15T07:20:02;9.45;;;6.28;;
66802;SDS011;53705;49.860;8.744;2023-04-15T07:22:33;10.85;;;6.88;;
66802;SDS011;53705;49.860;8.744;2023-04-15T07:25:02;9.93;;;4.15;;
66802;SDS011;53705;49.860;8.744;2023-04-15T07:27:31;14.85;;;4.90;;
66802;SDS011;53705;49.860;8.744;2023-04-15T07:30:00;9.25;;;3.95;;
66802;SDS011;53705;49.860;8.744;2023-04-15T07:32:29;8.43;;;3.88;;
66802;SDS011;53705;49.860;8.744;2023-04-15T07:34:58;10.40;;;4.43;;
66802;SDS011;53705;49.860;8.744;2023-04-15T07:37:28;10.85;;;4.40;;
66802;SDS011;53705;49.860;8.744;2023-04-15T07:39:59;9.55;;;4.97;;
66802;SDS011;53705;49.860;8.744;2023-04-15T07:42:28;8.07;;;3.88;;
66802;SDS011;53705;49.860;8.744;2023-04-15T07:44:57;8.25;;;4.13;;
66802;SDS011;53705;49.860;8.744;2023-04-15T07:47:26;9.27;;;4.03;;
66802;SDS011;53705;49.860;8.744;2023-04-15T07:49:55;7.00;;;4.07;;
66802;SDS011;53705;49.860;8.744;2023-04-15T07:52:25;7.72;;;4.28;;
66802;SDS011;53705;49.860;8.744;2023-04-15T07:54:55;10.35;;;4.80;;
66802;SDS011;53705;49.860;8.744;2023-04-15T07:57:26;8.77;;;4.63;;
66802;SDS011;53705;49.860;8.744;2023-04-15T07:59:57;9.05;;;4.18;;
66802;SDS011;53705;49.860;8.744;2023-04-15T08:02:39;9.23;;;4.32;;
66802;SDS011;53705;49.860;8.744;2023-04-15T08:05:09;9.45;;;4.63;;
66802;SDS011;53705;49.860;8.744;2023-04-15T08:07:39;9.68;;;4.47;;
66802;SDS011;53705;49.860;8.744;2023-04-15T08:10:09;9.68;;;4.45;;
66802;SDS011;53705;49.860;8.744;2023-04-15T08:12:41;11.10;;;4.47;;
66802;SDS011;53705;49.860;8.744;2023-04-15T08:15:10;9.55;;;4.57;;
66802;SDS011;53705;49.860;8.744;2023-04-15T08:17:40;9.77;;;4.90;;
66802;SDS011;53705;49.860;8.744;2023-04-15T08:20:09;11.25;;;4.47;;
66802;SDS011;53705;49.860;8.744;2023-04-15T08:22:38;8.63;;;4.65;;
66802;SDS011;53705;49.860;8.744;2023-04-15T08:25:07;9.18;;;4.72;;
66802;SDS011;53705;49.860;8.744;2023-04-15T08:27:37;13.10;;;4.95;;
66802;SDS011;53705;49.860;8.744;2023-04-15T08:30:08;9.25;;;4.68;;
66802;SDS011;53705;49.860;8.744;2023-04-15T08:32:37;9.60;;;4.50;;
66802;SDS011;53705;49.860;8.744;2023-04-15T08:35:06;11.85;;;4.75;;
66802;SDS011;53705;49.860;8.744;2023-04-15T08:37:35;7.43;;;3.40;;
66802;SDS011;53705;49.860;8.744;2023-04-15T08:40:05;8.80;;;3.92;;
66802;SDS011;53705;49.860;8.744;2023-04-15T08:42:35;9.52;;;4.10;;
66802;SDS011;53705;49.860;8.744;2023-04-15T08:45:06;6.60;;;3.30;;
66802;SDS011;53705;49.860;8.744;2023-04-15T08:47:38;9.70;;;6.20;;
66802;SDS011;53705;49.860;8.744;2023-04-15T08:50:08;8.43;;;3.67;;
66802;SDS011;53705;49.860;8.744;2023-04-15T08:52:38;6.10;;;3.10;;
66802;SDS011;53705;49.860;8.744;2023-04-15T08:55:07;6.15;;;4.80;;
66802;SDS011;53705;49.860;8.744;2023-04-15T08:57:37;6.32;;;2.58;;
66802;SDS011;53705;49.860;8.744;2023-04-15T09:00:06;5.55;;;2.88;;
66802;SDS011;53705;49.860;8.744;2023-04-15T09:02:38;6.22;;;2.35;;
66802;SDS011;53705;49.860;8.744;2023-04-15T09:05:08;4.78;;;1.98;;
66802;SDS011;53705;49.860;8.744;2023-04-15T09:07:37;6.68;;;1.95;;
66802;SDS011;53705;49.860;8.744;2023-04-15T09:10:06;9.98;;;3.60;;
66802;SDS011;53705;49.860;8.744;2023-04-15T09:12:35;5.05;;;3.17;;
66802;SDS011;53705;49.860;8.744;2023-04-15T09:15:05;6.30;;;1.73;;
66802;SDS011;53705;49.860;8.744;2023-04-15T09:17:36;3.42;;;1.27;;
66802;SDS011;53705;49.860;8.744;2023-04-15T09:20:11;3.17;;;1.10;;
66802;SDS011;53705;49.860;8.744;2023-04-15T09:22:42;5.50;;;1.75;;
66802;SDS011;53705;49.860;8.744;2023-04-15T09:25:24;4.07;;;1.27;;
66802;SDS011;53705;49.860;8.744;2023-04-15T09:27:53;4.10;;;1.75;;
66802;SDS011;53705;49.860;8.744;2023-04-15T09:30:23;4.65;;;2.30;;
66802;SDS011;53705;49.860;8.744;2023-04-15T09:32:52;3.50;;;1.17;;
66802;SDS011;53705;49.860;8.744;2023-04-15T09:35:24;3.28;;;1.38;;
66802;SDS011;53705;49.860;8.744;2023-04-15T09:37:53;3.42;;;1.55;;
66802;SDS011;53705;49.860;8.744;2023-04-15T09:40:29;4.45;;;1.55;;
66802;SDS011;53705;49.860;8.744;2023-04-15T09:42:58;4.85;;;4.00;;
66802;SDS011;53705;49.860;8.744;2023-04-15T09:45:28;2.58;;;0.77;;
66802;SDS011;53705;49.860;8.744;2023-04-15T09:47:58;3.95;;;0.90;;
66802;SDS011;53705;49.860;8.744;2023-04-15T09:50:28;3.97;;;2.20;;
66802;SDS011;53705;49.860;8.744;2023-04-15T09:52:57;3.53;;;2.60;;
66802;SDS011;53705;49.860;8.744;2023-04-15T09:55:27;3.25;;;0.70;;
66802;SDS011;53705;49.860;8.744;2023-04-15T09:58:01;2.25;;;0.50;;
66802;SDS011;53705;49.860;8.744;2023-04-15T10:00:30;2.67;;;0.43;;
66802;SDS011;53705;49.860;8.744;2023-04-15T10:02:59;3.35;;;0.52;;
66802;SDS011;53705;49.860;8.744;2023-04-15T10:05:30;1.55;;;0.35;;
66802;SDS011;53705;49.860;8.744;2023-04-15T10:08:00;1.75;;;0.22;;
66802;SDS011;53705;49.860;8.744;2023-04-15T10:10:31;1.80;;;0.50;;
66802;SDS011;53705;49.860;8.744;2023-04-15T10:13:00;3.03;;;2.30;;
66802;SDS011;53705;49.860;8.744;2023-04-15T10:15:29;2.75;;;1.67;;
66802;SDS011;53705;49.860;8.744;2023-04-15T10:17:59;2.78;;;0.85;;
66802;SDS011;53705;49.860;8.744;2023-04-15T10:20:28;1.92;;;0.47;;
66802;SDS011;53705;49.860;8.744;2023-04-15T10:22:58;2.95;;;1.23;;
66802;SDS011;53705;49.860;8.744;2023-04-15T10:25:28;4.00;;;0.47;;
66802;SDS011;53705;49.860;8.744;2023-04-15T10:27:58;2.80;;;0.73;;
66802;SDS011;53705;49.860;8.744;2023-04-15T10:30:27;2.75;;;0.70;;
66802;SDS011;53705;49.860;8.744;2023-04-15T10:32:58;3.05;;;2.20;;
66802;SDS011;53705;49.860;8.744;2023-04-15T10:35:28;3.13;;;0.57;;
66802;SDS011;53705;49.860;8.744;2023-04-15T10:37:58;2.35;;;0.57;;
66802;SDS011;53705;49.860;8.744;2023-04-15T10:40:28;3.30;;;0.85;;
66802;SDS011;53705;49.860;8.744;2023-04-15T10:42:59;2.53;;;0.65;;
66802;SDS011;53705;49.860;8.744;2023-04-15T10:45:31;3.22;;;2.13;;
66802;SDS011;53705;49.860;8.744;2023-04-15T10:48:00;2.88;;;1.15;;
66802;SDS011;53705;49.860;8.744;2023-04-15T10:50:31;3.15;;;1.88;;
66802;SDS011;53705;49.860;8.744;2023-04-15T10:53:02;2.78;;;1.80;;
66802;SDS011;53705;49.860;8.744;2023-04-15T10:55:32;1.85;;;0.50;;
66802;SDS011;53705;49.860;8.744;2023-04-15T10:58:01;2.22;;;0.60;;
66802;SDS011;53705;49.860;8.744;2023-04-15T11:00:31;2.55;;;1.75;;
66802;SDS011;53705;49.860;8.744;2023-04-15T11:03:04;1.77;;;0.40;;
66802;SDS011;53705;49.860;8.744;2023-04-15T11:05:47;1.80;;;0.45;;
66802;SDS011;53705;49.860;8.744;2023-04-15T11:08:18;2.42;;;0.52;;
66802;SDS011;53705;49.860;8.744;2023-04-15T11:10:50;1.88;;;0.57;;
66802;SDS011;53705;49.860;8.744;2023-04-15T11:13:23;3.28;;;0.63;;
66802;SDS011;53705;49.860;8.744;2023-04-15T11:15:55;2.08;;;0.75;;
66802;SDS011;53705;49.860;8.744;2023-04-15T11:18:26;3.13;;;0.98;;
66802;SDS011;53705;49.860;8.744;2023-04-15T11:20:58;3.47;;;1.92;;
66802;SDS011;53705;49.860;8.744;2023-04-15T11:23:30;2.78;;;0.65;;
66802;SDS011;53705;49.860;8.744;2023-04-15T11:26:00;2.88;;;0.70;;
66802;SDS011;53705;49.860;8.744;2023-04-15T11:28:30;3.13;;;0.70;;
66802;SDS011;53705;49.860;8.744;2023-04-15T11:31:04;3.40;;;0.82;;
66802;SDS011;53705;49.860;8.744;2023-04-15T11:33:33;2.10;;;0.65;;
66802;SDS011;53705;49.860;8.744;2023-04-15T11:36:03;3.97;;;2.50;;
66802;SDS011;53705;49.860;8.744;2023-04-15T11:38:34;2.08;;;0.57;;
66802;SDS011;53705;49.860;8.744;2023-04-15T11:41:04;4.82;;;1.20;;
66802;SDS011;53705;49.860;8.744;2023-04-15T11:43:33;2.90;;;0.75;;
66802;SDS011;53705;49.860;8.744;2023-04-15T11:46:03;2.88;;;0.70;;
66802;SDS011;53705;49.860;8.744;2023-04-15T11:48:32;2.35;;;0.63;;
66802;SDS011;53705;49.860;8.744;2023-04-15T11:51:02;3.00;;;0.70;;
66802;SDS011;53705;49.860;8.744;2023-04-15T11:53:38;2.42;;;1.00;;
66802;SDS011;53705;49.860;8.744;2023-04-15T11:56:07;3.10;;;1.27;;
66802;SDS011;53705;49.860;8.744;2023-04-15T11:58:35;4.35;;;0.77;;
66802;SDS011;53705;49.860;8.744;2023-04-15T12:01:05;4.15;;;0.88;;
66802;SDS011;53705;49.860;8.744;2023-04-15T12:03:36;2.88;;;0.93;;
66802;SDS011;53705;49.860;8.744;2023-04-15T12:06:05;2.72;;;0.65;;
66802;SDS011;53705;49.860;8.744;2023-04-15T12:08:50;2.78;;;0.80;;
66802;SDS011;53705;49.860;8.744;2023-04-15T12:11:18;3.35;;;2.22;;
66802;SDS011;53705;49.860;8.744;2023-04-15T12:13:46;2.30;;;0.63;;
66802;SDS011;53705;49.860;8.744;2023-04-15T12:16:15;3.08;;;0.82;;
66802;SDS011;53705;49.860;8.744;2023-04-15T12:18:44;4.53;;;0.60;;
66802;SDS011;53705;49.860;8.744;2023-04-15T12:21:12;3.42;;;2.10;;
66802;SDS011;53705;49.860;8.744;2023-04-15T12:23:46;2.75;;;0.57;;
66802;SDS011;53705;49.860;8.744;2023-04-15T12:26:16;2.90;;;1.33;;
66802;SDS011;53705;49.860;8.744;2023-04-15T12:28:44;4.75;;;1.90;;
66802;SDS011;53705;49.860;8.744;2023-04-15T12:31:13;3.75;;;1.63;;
66802;SDS011;53705;49.860;8.744;2023-04-15T12:33:41;4.35;;;3.40;;
66802;SDS011;53705;49.860;8.744;2023-04-15T12:36:09;4.68;;;1.77;;
66802;SDS011;53705;49.860;8.744;2023-04-15T12:38:37;5.65;;;2.03;;
66802;SDS011;53705;49.860;8.744;2023-04-15T12:41:05;3.17;;;1.42;;
66802;SDS011;53705;49.860;8.744;2023-04-15T12:43:34;4.53;;;1.77;;
66802;SDS011;53705;49.860;8.744;2023-04-15T12:46:02;3.80;;;1.75;;
66802;SDS011;53705;49.860;8.744;2023-04-15T12:48:30;5.55;;;1.40;;
66802;SDS011;53705;49.860;8.744;2023-04-15T12:50:58;4.28;;;1.77;;
66802;SDS011;53705;49.860;8.744;2023-04-15T12:53:26;6.80;;;1.63;;
66802;SDS011;53705;49.860;8.744;2023-04-15T12:55:54;5.40;;;2.20;;
66802;SDS011;53705;49.860;8.744;2023-04-15T12:58:22;3.47;;;1.38;;
66802;SDS011;53705;49.860;8.744;2023-04-15T13:00:51;4.30;;;1.90;;
66802;SDS011;53705;49.860;8.744;2023-04-15T13:03:18;5.78;;;3.40;;
66802;SDS011;53705;49.860;8.744;2023-04-15T13:05:46;6.70;;;3.83;;
66802;SDS011;53705;49.860;8.744;2023-04-15T13:08:14;5.47;;;2.03;;
66802;SDS011;53705;49.860;8.744;2023-04-15T13:10:42;4.85;;;2.35;;
66802;SDS011;53705;49.860;8.744;2023-04-15T13:13:09;5.03;;;1.85;;
66802;SDS011;53705;49.860;8.744;2023-04-15T13:15:37;4.95;;;1.95;;
66802;SDS011;53705;49.860;8.744;2023-04-15T13:18:06;4.07;;;1.50;;
66802;SDS011;53705;49.860;8.744;2023-04-15T13:20:35;5.03;;;2.10;;
66802;SDS011;53705;49.860;8.744;2023-04-15T13:23:02;4.47;;;3.20;;
66802;SDS011;53705;49.860;8.744;2023-04-15T13:25:30;5.43;;;1.90;;
66802;SDS011;53705;49.860;8.744;2023-04-15T13:27:58;4.45;;;1.83;;
66802;SDS011;53705;49.860;8.744;2023-04-15T13:30:27;4.70;;;2.10;;
66802;SDS011;53705;49.860;8.744;2023-04-15T13:32:54;3.70;;;1.52;;
66802;SDS011;53705;49.860;8.744;2023-04-15T13:35:23;4.20;;;1.38;;
66802;SDS011;53705;49.860;8.744;2023-04-15T13:37:52;3.97;;;2.78;;
66802;SDS011;53705;49.860;8.744;2023-04-15T13:40:20;3.92;;;2.45;;
66802;SDS011;53705;49.860;8.744;2023-04-15T13:42:48;3.63;;;1.23;;
66802;SDS011;53705;49.860;8.744;2023-04-15T13:45:16;4.82;;;2.33;;
66802;SDS011;53705;49.860;8.744;2023-04-15T13:47:43;4.55;;;2.20;;
66802;SDS011;53705;49.860;8.744;2023-04-15T13:50:11;3.15;;;1.00;;
66802;SDS011;53705;49.860;8.744;2023-04-15T13:52:41;2.88;;;1.27;;
66802;SDS011;53705;49.860;8.744;2023-04-15T13:55:08;3.30;;;0.68;;
66802;SDS011;53705;49.860;8.744;2023-04-15T13:57:47;2.20;;;1.05;;
66802;SDS011;53705;49.860;8.744;2023-04-15T14:00:15;3.00;;;0.40;;
66802;SDS011;53705;49.860;8.744;2023-04-15T14:02:43;2.85;;;0.60;;
66802;SDS011;53705;49.860;8.744;2023-04-15T14:05:11;2.25;;;0.30;;
66802;SDS011;53705;49.860;8.744;2023-04-15T14:07:40;2.67;;;0.32;;
66802;SDS011;53705;49.860;8.744;2023-04-15T14:10:08;1.48;;;0.20;;
66802;SDS011;53705;49.860;8.744;2023-04-15T14:12:36;1.77;;;0.30;;
66802;SDS011;53705;49.860;8.744;2023-04-15T14:15:05;1.73;;;0.47;;
66802;SDS011;53705;49.860;8.744;2023-04-15T14:17:33;1.45;;;0.73;;
66802;SDS011;53705;49.860;8.744;2023-04-15T14:20:01;1.48;;;0.40;;
66802;SDS011;53705;49.860;8.744;2023-04-15T14:22:29;0.77;;;0.25;;
66802;SDS011;53705;49.860;8.744;2023-04-15T14:24:58;1.13;;;0.28;;
66802;SDS011;53705;49.860;8.744;2023-04-15T14:27:26;1.20;;;0.20;;
66802;SDS011;53705;49.860;8.744;2023-04-15T14:29:53;1.05;;;0.45;;
66802;SDS011;53705;49.860;8.744;2023-04-15T14:32:23;1.17;;;0.10;;
66802;SDS011;53705;49.860;8.744;2023-04-15T14:34:51;1.52;;;0.25;;
66802;SDS011;53705;49.860;8.744;2023-04-15T14:37:19;1.92;;;0.50;;
66802;SDS011;53705;49.860;8.744;2023-04-15T14:39:47;4.75;;;0.30;;
66802;SDS011;53705;49.860;8.744;2023-04-15T14:42:15;5.22;;;1.70;;
66802;SDS011;53705;49.860;8.744;2023-04-15T14:44:43;3.70;;;0.70;;
66802;SDS011;53705;49.860;8.744;2023-04-15T14:47:12;2.60;;;0.28;;
66802;SDS011;53705;49.860;8.744;2023-04-15T14:49:40;1.88;;;0.50;;
66802;SDS011;53705;49.860;8.744;2023-04-15T14:52:08;2.65;;;0.40;;
66802;SDS011;53705;49.860;8.744;2023-04-15T14:54:35;2.15;;;0.73;;
66802;SDS011;53705;49.860;8.744;2023-04-15T14:57:03;1.77;;;0.32;;
66802;SDS011;53705;49.860;8.744;2023-04-15T14:59:32;2.60;;;0.70;;
66802;SDS011;53705;49.860;8.744;2023-04-15T15:02:00;4.05;;;2.40;;
66802;SDS011;53705;49.860;8.744;2023-04-15T15:04:28;2.22;;;0.60;;